Time;durP1;ratioP1;P1;durP2;ratioP2;P2;SDS_P1;SDS_P2;PMS_P1;PMS_P2;Temp;Humidity;BMP_temperature;BMP_pressure;BME280_temperature;BME280_humidity;BME280_pressure;Samples;Min_cycle;Max_cycle;Signal;HPM_P1;HPM_P2
2022/05/28 00:00:30;;;;;;;7.73;2.10;;;;;;;;;;5088904;28;20031;-73
2022/05/28 00:02:56;;;;;;;4.27;1.90;;;;;;;;;;5089264;28;20478;-75
2022/05/28 00:05:23;;;;;;;8.37;2.30;;;;;;;;;;5093828;28;20077;-73
2022/05/28 00:07:50;;;;;;;4.77;2.30;;;;;;;;;;5093680;28;20032;-75
2022/05/28 00:10:17;;;;;;;2.80;1.40;;;;;;;;;;5093800;28;20459;-71
2022/05/28 00:12:45;;;;;;;3.87;1.23;;;;;;;;;;5093432;28;20487;-74
2022/05/28 00:15:12;;;;;;;3.23;1.40;;;;;;;;;;5092003;28;20162;-74
2022/05/28 00:17:39;;;;;;;4.00;2.00;;;;;;;;;;5088428;28;20092;-74
2022/05/28 00:20:07;;;;;;;2.47;1.27;;;;;;;;;;5088175;28;20097;-74
2022/05/28 00:22:37;;;;;;;2.73;1.13;;;;;;;;;;5088336;28;20530;-72
2022/05/28 00:25:05;;;;;;;3.40;1.30;;;;;;;;;;5088115;28;20028;-70
2022/05/28 00:27:31;;;;;;;3.77;1.20;;;;;;;;;;5091947;28;20028;-71
2022/05/28 00:29:58;;;;;;;2.10;1.00;;;;;;;;;;5092498;28;20016;-72
2022/05/28 00:32:25;;;;;;;3.53;1.40;;;;;;;;;;5093099;28;20016;-73
2022/05/28 00:34:51;;;;;;;3.33;1.40;;;;;;;;;;5093364;28;20107;-72
2022/05/28 00:37:18;;;;;;;4.47;1.90;;;;;;;;;;5092830;28;20023;-70
2022/05/28 00:39:45;;;;;;;2.97;1.20;;;;;;;;;;5087761;28;20429;-70
2022/05/28 00:42:11;;;;;;;2.67;1.10;;;;;;;;;;5087984;28;20060;-70
2022/05/28 00:44:38;;;;;;;4.03;0.93;;;;;;;;;;5088429;28;20027;-70
2022/05/28 00:47:05;;;;;;;7.60;1.30;;;;;;;;;;5087958;28;20029;-71
2022/05/28 00:49:35;;;;;;;2.53;1.20;;;;;;;;;;5092180;28;20051;-70
2022/05/28 00:52:04;;;;;;;1.67;0.80;;;;;;;;;;5092355;28;20427;-72
2022/05/28 00:54:33;;;;;;;3.93;1.10;;;;;;;;;;5092790;28;20024;-70
2022/05/28 00:57:02;;;;;;;7.43;1.77;;;;;;;;;;5092825;28;20020;-71
2022/05/28 00:59:29;;;;;;;3.00;1.10;;;;;;;;;;5092794;28;20114;-69
2022/05/28 01:01:59;;;;;;;5.00;2.03;;;;;;;;;;5087469;28;20178;-69
2022/05/28 01:04:29;;;;;;;4.23;1.90;;;;;;;;;;5087362;28;20031;-69
2022/05/28 01:06:58;;;;;;;5.43;1.73;;;;;;;;;;5087537;28;20027;-71
2022/05/28 01:09:28;;;;;;;8.87;2.30;;;;;;;;;;5087378;28;20024;-69
2022/05/28 01:12:15;;;;;;;5.33;2.40;;;;;;;;;;5091828;28;20377;-69
2022/05/28 01:14:54;;;;;;;4.67;2.80;;;;;;;;;;5092440;28;20445;-70
2022/05/28 01:17:32;;;;;;;5.63;2.63;;;;;;;;;;5092782;28;20024;-70
2022/05/28 01:20:03;;;;;;;5.93;2.57;;;;;;;;;;5092584;28;20016;-71
2022/05/28 01:22:39;;;;;;;5.63;2.20;;;;;;;;;;5090954;28;20023;-71
2022/05/28 01:25:12;;;;;;;5.33;3.03;;;;;;;;;;5086647;28;20478;-70
2022/05/28 01:27:42;;;;;;;5.53;2.63;;;;;;;;;;5086655;28;20378;-66
2022/05/28 01:30:11;;;;;;;5.93;2.00;;;;;;;;;;5086837;28;20444;-67
2022/05/28 01:32:38;;;;;;;2.33;1.20;;;;;;;;;;5075258;28;20027;-71
2022/05/28 01:35:07;;;;;;;5.80;2.13;;;;;;;;;;5092107;28;20122;-72
2022/05/28 01:37:34;;;;;;;4.87;1.80;;;;;;;;;;5090740;28;20031;-70
2022/05/28 01:40:03;;;;;;;3.67;1.70;;;;;;;;;;5091013;28;20039;-72
2022/05/28 01:42:31;;;;;;;5.53;2.07;;;;;;;;;;5072067;28;20055;-72
2022/05/28 01:44:58;;;;;;;7.90;2.17;;;;;;;;;;5070850;28;20479;-72
2022/05/28 01:47:25;;;;;;;3.83;1.63;;;;;;;;;;5066872;28;20479;-72
2022/05/28 01:49:52;;;;;;;4.57;2.57;;;;;;;;;;5080661;28;20952;-72
2022/05/28 01:52:20;;;;;;;5.87;2.30;;;;;;;;;;5087321;28;20020;-72
2022/05/28 01:54:48;;;;;;;3.40;1.40;;;;;;;;;;5087108;28;20035;-72
2022/05/28 01:57:15;;;;;;;4.37;1.10;;;;;;;;;;5091828;28;20027;-72
2022/05/28 01:59:43;;;;;;;6.03;2.10;;;;;;;;;;5092184;28;20066;-73
2022/05/28 02:02:12;;;;;;;6.30;1.80;;;;;;;;;;5091999;28;20016;-72
2022/05/28 02:04:40;;;;;;;4.37;1.97;;;;;;;;;;5092094;28;20020;-72
2022/05/28 02:07:07;;;;;;;5.80;2.50;;;;;;;;;;5091083;28;20063;-74
2022/05/28 02:09:36;;;;;;;2.63;1.43;;;;;;;;;;5086417;28;20039;-74
2022/05/28 02:12:06;;;;;;;4.90;2.17;;;;;;;;;;5086525;28;20103;-75
2022/05/28 02:14:41;;;;;;;4.77;2.67;;;;;;;;;;5086947;28;20027;-74
2022/05/28 02:17:08;;;;;;;8.13;2.53;;;;;;;;;;5087029;28;20058;-74
2022/05/28 02:19:47;;;;;;;4.30;1.40;;;;;;;;;;5091369;28;20093;-74
2022/05/28 02:22:20;;;;;;;5.70;1.97;;;;;;;;;;5091941;28;20028;-74
2022/05/28 02:24:52;;;;;;;3.07;1.40;;;;;;;;;;5091790;28;20027;-74
2022/05/28 02:27:20;;;;;;;6.57;3.50;;;;;;;;;;5092087;28;20032;-74
2022/05/28 02:29:47;;;;;;;6.07;2.30;;;;;;;;;;5091037;28;20390;-74
2022/05/28 02:32:15;;;;;;;1.97;0.97;;;;;;;;;;5086405;28;20024;-74
2022/05/28 02:34:45;;;;;;;1.37;0.90;;;;;;;;;;5086739;28;20490;-74
2022/05/28 02:37:13;;;;;;;3.27;0.60;;;;;;;;;;5086573;28;20032;-75
2022/05/28 02:39:40;;;;;;;3.03;0.77;;;;;;;;;;5086715;28;20032;-75
2022/05/28 02:42:07;;;;;;;2.10;0.70;;;;;;;;;;5091609;28;20020;-75
2022/05/28 02:44:34;;;;;;;4.60;1.00;;;;;;;;;;5091574;28;20028;-74
2022/05/28 02:47:01;;;;;;;1.17;0.60;;;;;;;;;;5091825;28;20020;-74
2022/05/28 02:49:27;;;;;;;2.13;0.70;;;;;;;;;;5091909;28;20146;-74
2022/05/28 02:51:54;;;;;;;1.27;0.70;;;;;;;;;;5094822;28;20101;-74
2022/05/28 02:54:22;;;;;;;2.77;0.90;;;;;;;;;;5089826;28;20055;-74
2022/05/28 02:56:49;;;;;;;6.07;1.00;;;;;;;;;;5089469;28;20478;-75
2022/05/28 02:59:16;;;;;;;1.70;0.70;;;;;;;;;;5090097;28;20028;-74
2022/05/28 03:01:42;;;;;;;2.03;0.90;;;;;;;;;;5090045;28;20036;-74
2022/05/28 03:04:09;;;;;;;3.93;0.90;;;;;;;;;;5094404;28;20032;-74
2022/05/28 03:06:37;;;;;;;4.27;0.80;;;;;;;;;;5095149;28;20051;-72
2022/05/28 03:09:07;;;;;;;2.33;0.93;;;;;;;;;;5094813;28;20119;-71
2022/05/28 03:11:34;;;;;;;2.03;0.90;;;;;;;;;;5094786;28;20086;-72
2022/05/28 03:14:01;;;;;;;0.60;0.30;;;;;;;;;;5094606;28;20016;-71
2022/05/28 03:16:28;;;;;;;2.27;0.77;;;;;;;;;;5090139;28;20074;-72
2022/05/28 03:18:54;;;;;;;3.70;0.87;;;;;;;;;;5089701;28;20081;-72
2022/05/28 03:21:21;;;;;;;0.90;0.43;;;;;;;;;;5089461;28;20048;-71
2022/05/28 03:23:48;;;;;;;2.33;0.80;;;;;;;;;;5089531;28;20035;-72
2022/05/28 03:26:22;;;;;;;2.77;0.67;;;;;;;;;;5093119;28;20032;-72
2022/05/28 03:28:50;;;;;;;1.33;0.73;;;;;;;;;;5094238;28;20444;-75
2022/05/28 03:31:17;;;;;;;4.13;0.60;;;;;;;;;;5094262;28;20028;-72
2022/05/28 03:33:44;;;;;;;3.57;0.80;;;;;;;;;;5094431;28;20032;-72
2022/05/28 03:36:10;;;;;;;2.43;0.70;;;;;;;;;;5094457;28;20513;-73
2022/05/28 03:38:37;;;;;;;1.23;0.77;;;;;;;;;;5090440;28;20056;-72
2022/05/28 03:41:05;;;;;;;2.77;0.90;;;;;;;;;;5089163;28;20016;-72
2022/05/28 03:43:31;;;;;;;4.23;0.80;;;;;;;;;;5088743;28;20429;-72
2022/05/28 03:45:58;;;;;;;4.93;1.37;;;;;;;;;;5088729;28;20035;-71
2022/05/28 03:48:25;;;;;;;2.47;0.80;;;;;;;;;;5091860;28;20048;-72
2022/05/28 03:50:52;;;;;;;3.23;1.30;;;;;;;;;;5094273;28;20078;-71
2022/05/28 03:53:18;;;;;;;2.33;0.70;;;;;;;;;;5094271;28;20352;-72
2022/05/28 03:55:45;;;;;;;2.50;1.10;;;;;;;;;;5093910;28;20103;-72
2022/05/28 03:58:12;;;;;;;0.80;0.60;;;;;;;;;;5094017;28;20024;-72
2022/05/28 04:00:40;;;;;;;2.17;0.63;;;;;;;;;;5090403;28;20917;-72
2022/05/28 04:03:07;;;;;;;1.93;0.97;;;;;;;;;;5088536;28;20028;-69
2022/05/28 04:05:33;;;;;;;2.40;0.87;;;;;;;;;;5088509;28;20539;-72
2022/05/28 04:08:00;;;;;;;2.73;0.90;;;;;;;;;;5088372;28;20367;-68
2022/05/28 04:10:27;;;;;;;6.03;2.40;;;;;;;;;;5091144;28;20024;-74
2022/05/28 04:12:54;;;;;;;1.97;0.90;;;;;;;;;;5093602;28;20418;-74
2022/05/28 04:15:20;;;;;;;3.97;0.73;;;;;;;;;;5093859;28;20032;-73
2022/05/28 04:17:47;;;;;;;2.73;0.90;;;;;;;;;;5093672;28;20420;-72
2022/05/28 04:20:14;;;;;;;3.07;1.07;;;;;;;;;;5093033;28;20047;-73
2022/05/28 04:22:40;;;;;;;5.97;1.50;;;;;;;;;;5090975;28;20024;-75
2022/05/28 04:25:07;;;;;;;5.73;1.53;;;;;;;;;;5088086;28;20085;-72
2022/05/28 04:27:34;;;;;;;5.20;1.27;;;;;;;;;;5088372;28;20024;-76
2022/05/28 04:30:01;;;;;;;4.50;1.83;;;;;;;;;;5088360;28;20030;-76
2022/05/28 04:32:28;;;;;;;4.03;1.30;;;;;;;;;;5089537;28;20024;-72
2022/05/28 04:34:55;;;;;;;3.70;1.80;;;;;;;;;;5093278;28;20089;-74
2022/05/28 04:37:22;;;;;;;3.00;1.50;;;;;;;;;;5093145;28;20077;-73
2022/05/28 04:39:49;;;;;;;4.67;1.50;;;;;;;;;;5093284;28;20077;-71
2022/05/28 04:42:16;;;;;;;7.33;2.23;;;;;;;;;;5092670;28;20087;-72
2022/05/28 04:44:42;;;;;;;8.57;2.97;;;;;;;;;;5091015;28;20039;-71
2022/05/28 04:47:09;;;;;;;6.03;2.50;;;;;;;;;;5087876;28;20104;-72
2022/05/28 04:49:36;;;;;;;5.93;2.80;;;;;;;;;;5088050;28;20024;-69
2022/05/28 04:52:02;;;;;;;6.77;2.83;;;;;;;;;;5087892;28;20028;-71
2022/05/28 04:54:29;;;;;;;13.37;3.40;;;;;;;;;;5088280;28;20023;-71
2022/05/28 04:56:56;;;;;;;14.13;2.57;;;;;;;;;;5092711;28;20024;-72
2022/05/28 04:59:22;;;;;;;6.77;2.90;;;;;;;;;;5092721;28;20027;-73
2022/05/28 05:01:49;;;;;;;9.20;3.37;;;;;;;;;;5092896;28;20374;-72
2022/05/28 05:04:16;;;;;;;11.80;3.10;;;;;;;;;;5092941;28;20342;-71
2022/05/28 05:06:42;;;;;;;5.67;2.60;;;;;;;;;;5092098;28;20033;-72
2022/05/28 05:09:09;;;;;;;7.53;2.97;;;;;;;;;;5087194;28;20028;-71
2022/05/28 05:11:36;;;;;;;10.07;3.67;;;;;;;;;;5087574;28;20024;-71
2022/05/28 05:14:03;;;;;;;9.33;2.80;;;;;;;;;;5087369;28;20036;-71
2022/05/28 05:16:29;;;;;;;6.87;2.53;;;;;;;;;;5087415;28;20035;-63
2022/05/28 05:18:56;;;;;;;7.17;3.03;;;;;;;;;;5092007;28;20478;-69
2022/05/28 05:21:23;;;;;;;14.13;2.63;;;;;;;;;;5092292;28;20024;-64
2022/05/28 05:23:49;;;;;;;12.00;3.40;;;;;;;;;;5092525;28;20028;-65
2022/05/28 05:26:18;;;;;;;8.30;3.20;;;;;;;;;;5092462;28;20028;-65
2022/05/28 05:28:44;;;;;;;7.60;3.10;;;;;;;;;;5092390;28;20072;-65
2022/05/28 05:31:11;;;;;;;9.73;3.33;;;;;;;;;;5086957;28;20475;-64
2022/05/28 05:33:38;;;;;;;11.47;3.67;;;;;;;;;;5087440;28;20020;-64
2022/05/28 05:36:05;;;;;;;7.33;3.13;;;;;;;;;;5086546;28;20024;-65
2022/05/28 05:38:32;;;;;;;9.83;2.97;;;;;;;;;;5087231;28;20085;-63
2022/05/28 05:40:58;;;;;;;7.47;2.80;;;;;;;;;;5091417;28;20047;-65
2022/05/28 05:43:25;;;;;;;6.63;2.43;;;;;;;;;;5092191;28;20081;-64
2022/05/28 05:45:59;;;;;;;6.07;2.90;;;;;;;;;;5091825;28;20024;-64
2022/05/28 05:48:27;;;;;;;7.28;2.72;;;;;;;;;;5092313;28;20039;-65
2022/05/28 05:50:54;;;;;;;7.67;2.37;;;;;;;;;;5092307;28;20107;-64
2022/05/28 05:53:20;;;;;;;8.00;2.67;;;;;;;;;;5069557;28;20421;-73
2022/05/28 05:55:47;;;;;;;6.60;2.80;;;;;;;;;;5086839;28;20030;-73
2022/05/28 05:58:14;;;;;;;8.10;2.63;;;;;;;;;;5087161;28;20020;-73
2022/05/28 06:00:41;;;;;;;4.93;2.50;;;;;;;;;;5086970;28;20020;-71
2022/05/28 06:03:08;;;;;;;5.13;2.20;;;;;;;;;;5090329;28;20463;-72
2022/05/28 06:05:35;;;;;;;9.03;2.47;;;;;;;;;;5088847;28;20021;-71
2022/05/28 06:08:02;;;;;;;8.37;2.73;;;;;;;;;;5074522;28;20029;-71
2022/05/28 06:10:28;;;;;;;7.37;3.03;;;;;;;;;;5091577;28;20052;-72
2022/05/28 06:12:55;;;;;;;11.67;3.03;;;;;;;;;;5092103;28;20077;-71
2022/05/28 06:15:22;;;;;;;5.70;2.60;;;;;;;;;;5088149;28;20036;-72
2022/05/28 06:17:49;;;;;;;6.63;2.50;;;;;;;;;;5086515;28;20028;-71
2022/05/28 06:20:15;;;;;;;5.40;2.27;;;;;;;;;;5086060;28;20028;-71
2022/05/28 06:22:42;;;;;;;7.33;2.40;;;;;;;;;;5086553;28;20478;-71
2022/05/28 06:25:09;;;;;;;6.60;3.03;;;;;;;;;;5089792;28;20043;-71
2022/05/28 06:27:36;;;;;;;11.60;2.33;;;;;;;;;;5095304;28;20096;-71
2022/05/28 06:30:02;;;;;;;8.87;2.80;;;;;;;;;;5095760;28;20020;-71
2022/05/28 06:32:29;;;;;;;7.13;2.40;;;;;;;;;;5095362;28;20502;-71
2022/05/28 06:34:56;;;;;;;7.83;2.53;;;;;;;;;;5095511;28;20020;-71
2022/05/28 06:37:23;;;;;;;8.53;2.97;;;;;;;;;;5092517;28;20028;-72
2022/05/28 06:39:49;;;;;;;7.67;2.50;;;;;;;;;;5090089;28;20086;-72
2022/05/28 06:42:16;;;;;;;5.77;2.73;;;;;;;;;;5090182;28;20026;-71
2022/05/28 06:44:43;;;;;;;6.03;2.17;;;;;;;;;;5089369;28;20034;-71
2022/05/28 06:47:09;;;;;;;5.93;2.50;;;;;;;;;;5092033;28;20432;-72
2022/05/28 06:49:36;;;;;;;5.10;2.43;;;;;;;;;;5095472;28;20044;-72
2022/05/28 06:52:03;;;;;;;5.17;2.30;;;;;;;;;;5095073;28;20502;-71
2022/05/28 06:54:29;;;;;;;6.03;2.63;;;;;;;;;;5074896;28;20032;-71
2022/05/28 06:56:56;;;;;;;11.73;2.73;;;;;;;;;;5074942;28;20510;-71
2022/05/28 06:59:23;;;;;;;5.23;1.90;;;;;;;;;;5072615;28;20020;-72
2022/05/28 07:01:49;;;;;;;3.60;2.20;;;;;;;;;;5069141;28;20482;-71
2022/05/28 07:04:16;;;;;;;5.30;2.23;;;;;;;;;;5088102;28;20032;-71
2022/05/28 07:06:43;;;;;;;6.13;2.33;;;;;;;;;;5089687;28;20138;-72
2022/05/28 07:09:09;;;;;;;5.87;2.50;;;;;;;;;;5090770;28;20031;-71
2022/05/28 07:11:36;;;;;;;6.30;2.30;;;;;;;;;;5094800;28;20031;-71
2022/05/28 07:14:03;;;;;;;6.13;1.93;;;;;;;;;;5094934;28;20031;-71
2022/05/28 07:16:30;;;;;;;7.97;2.23;;;;;;;;;;5094505;28;20355;-71
2022/05/28 07:18:56;;;;;;;4.57;1.63;;;;;;;;;;5094354;28;20027;-71
2022/05/28 07:21:23;;;;;;;4.87;2.37;;;;;;;;;;5093391;28;20039;-72
2022/05/28 07:23:49;;;;;;;7.17;2.47;;;;;;;;;;5088701;28;20428;-72
2022/05/28 07:26:17;;;;;;;8.77;2.17;;;;;;;;;;5089372;28;20031;-71
2022/05/28 07:28:45;;;;;;;5.87;2.30;;;;;;;;;;5088994;28;20039;-72
2022/05/28 07:31:12;;;;;;;5.70;2.57;;;;;;;;;;5089025;28;20020;-71
2022/05/28 07:33:44;;;;;;;8.00;3.47;;;;;;;;;;5094598;28;20020;-72
2022/05/28 07:36:11;;;;;;;3.70;2.20;;;;;;;;;;5093444;28;20375;-72
2022/05/28 07:38:39;;;;;;;8.10;2.70;;;;;;;;;;5093702;28;20031;-73
2022/05/28 07:41:07;;;;;;;8.67;3.37;;;;;;;;;;5094155;28;20375;-72
2022/05/28 07:43:35;;;;;;;12.97;3.57;;;;;;;;;;5093040;28;20035;-71
2022/05/28 07:46:02;;;;;;;12.97;3.67;;;;;;;;;;5088467;28;20032;-72
2022/05/28 07:48:28;;;;;;;7.00;2.97;;;;;;;;;;5088866;28;20475;-71
2022/05/28 07:50:55;;;;;;;5.47;2.77;;;;;;;;;;5088370;28;20024;-71
2022/05/28 07:53:22;;;;;;;7.07;2.83;;;;;;;;;;5088403;28;20031;-71
2022/05/28 07:55:48;;;;;;;5.00;2.40;;;;;;;;;;5094052;28;20024;-72
2022/05/28 07:58:16;;;;;;;5.47;2.60;;;;;;;;;;5093884;28;20099;-71
2022/05/28 08:00:44;;;;;;;5.13;2.83;;;;;;;;;;5093975;28;20120;-72
2022/05/28 08:03:12;;;;;;;6.67;2.60;;;;;;;;;;5093700;28;20024;-71
2022/05/28 08:05:39;;;;;;;8.17;2.90;;;;;;;;;;5093358;28;20024;-71
2022/05/28 08:08:06;;;;;;;7.67;2.20;;;;;;;;;;5087984;28;20036;-72
2022/05/28 08:10:33;;;;;;;5.17;2.40;;;;;;;;;;5088482;28;20039;-71
2022/05/28 08:13:01;;;;;;;6.97;2.53;;;;;;;;;;5088013;28;20028;-71
2022/05/28 08:15:27;;;;;;;7.10;2.60;;;;;;;;;;5088063;28;20020;-71
2022/05/28 08:17:54;;;;;;;7.17;2.43;;;;;;;;;;5093333;28;20028;-71
2022/05/28 08:23:08;;;;;;;4.20;2.07;;;;;;;;;;5093426;28;20027;-71
2022/05/28 08:23:10;;;;;;;9.73;2.77;;;;;;;;;;5092902;28;20075;-71
2022/05/28 08:25:39;;;;;;;8.30;3.03;;;;;;;;;;5093348;28;20012;-71
2022/05/28 08:28:09;;;;;;;5.37;2.80;;;;;;;;;;5092743;28;20034;-72
2022/05/28 08:30:38;;;;;;;10.40;2.70;;;;;;;;;;5087664;28;20035;-71
2022/05/28 08:33:04;;;;;;;5.43;2.47;;;;;;;;;;5087948;28;20028;-72
2022/05/28 08:35:32;;;;;;;5.03;2.30;;;;;;;;;;5087736;28;20039;-72
2022/05/28 08:38:02;;;;;;;5.60;2.67;;;;;;;;;;5087647;28;20036;-71
2022/05/28 08:40:29;;;;;;;5.40;2.67;;;;;;;;;;5093390;28;20361;-71
2022/05/28 08:42:56;;;;;;;5.13;2.67;;;;;;;;;;5093315;28;20506;-71
2022/05/28 08:45:22;;;;;;;6.87;2.53;;;;;;;;;;5092938;28;20432;-72
2022/05/28 08:47:50;;;;;;;10.60;2.40;;;;;;;;;;5091626;28;20060;-71
2022/05/28 08:50:17;;;;;;;11.60;2.60;;;;;;;;;;5092422;28;20474;-72
2022/05/28 08:52:49;;;;;;;5.63;2.50;;;;;;;;;;5087682;28;20059;-72
2022/05/28 08:55:22;;;;;;;8.10;2.33;;;;;;;;;;5087171;28;20163;-72
2022/05/28 08:57:49;;;;;;;6.17;2.70;;;;;;;;;;5067160;28;20024;-71
2022/05/28 09:00:18;;;;;;;5.37;2.50;;;;;;;;;;5067151;28;20499;-72
2022/05/28 09:02:49;;;;;;;9.23;2.83;;;;;;;;;;5072293;28;20017;-71
2022/05/28 09:05:19;;;;;;;7.83;2.50;;;;;;;;;;5073859;28;20017;-71
2022/05/28 09:07:46;;;;;;;5.77;2.93;;;;;;;;;;5092825;28;20412;-71
2022/05/28 09:10:13;;;;;;;6.03;2.93;;;;;;;;;;5092675;28;20031;-72
2022/05/28 09:12:52;;;;;;;6.37;2.80;;;;;;;;;;5092293;28;20104;-71
2022/05/28 09:15:19;;;;;;;6.20;2.37;;;;;;;;;;5086881;28;20020;-71
2022/05/28 09:17:47;;;;;;;4.83;2.47;;;;;;;;;;5086844;28;20020;-71
2022/05/28 09:20:27;;;;;;;5.47;2.37;;;;;;;;;;5087232;28;20028;-71
2022/05/28 09:22:55;;;;;;;2.83;1.73;;;;;;;;;;5087599;28;20024;-71
2022/05/28 09:25:24;;;;;;;8.67;2.27;;;;;;;;;;5092534;28;20020;-71
2022/05/28 09:27:57;;;;;;;5.37;2.33;;;;;;;;;;5091710;28;20024;-71
2022/05/28 09:30:31;;;;;;;5.47;2.23;;;;;;;;;;5092089;28;20081;-71
2022/05/28 09:33:05;;;;;;;4.43;2.20;;;;;;;;;;5092531;28;20024;-71
2022/05/28 09:35:48;;;;;;;4.37;1.90;;;;;;;;;;5090722;28;20024;-71
2022/05/28 09:38:24;;;;;;;6.67;2.90;;;;;;;;;;5086714;28;20110;-71
2022/05/28 09:40:52;;;;;;;4.07;2.40;;;;;;;;;;5086912;28;20355;-71
2022/05/28 09:43:27;;;;;;;5.97;2.20;;;;;;;;;;5086931;28;20024;-71
2022/05/28 09:46:12;;;;;;;6.17;2.33;;;;;;;;;;5088476;28;20109;-72
2022/05/28 09:48:39;;;;;;;3.67;1.85;;;;;;;;;;5091953;28;20067;-72
2022/05/28 09:51:20;;;;;;;4.27;2.00;;;;;;;;;;5092202;28;20032;-72
2022/05/28 09:56:37;;;;;;;6.53;2.25;;;;;;;;;;5092167;28;20115;-71
2022/05/28 09:59:20;;;;;;;4.17;1.77;;;;;;;;;;5088244;28;20498;-71
2022/05/28 10:01:55;;;;;;;3.53;1.80;;;;;;;;;;5090727;28;20024;-71
2022/05/28 10:04:30;;;;;;;;;;;;;;;;;;5090785;28;20020;-71
2022/05/28 10:07:04;;;;;;;4.53;1.45;;;;;;;;;;5090587;28;19934;-71
2022/05/28 10:09:32;;;;;;;3.07;1.50;;;;;;;;;;5095596;28;20024;-71
2022/05/28 10:12:02;;;;;;;2.93;1.63;;;;;;;;;;5096239;28;20132;-72
2022/05/28 10:14:30;;;;;;;4.53;1.60;;;;;;;;;;5095900;28;20024;-71
2022/05/28 10:17:02;;;;;;;5.70;1.50;;;;;;;;;;5095744;28;20020;-71
2022/05/28 10:19:29;;;;;;;3.03;1.40;;;;;;;;;;5095913;28;20063;-71
2022/05/28 10:21:57;;;;;;;4.00;1.40;;;;;;;;;;5090523;28;20020;-71
2022/05/28 10:24:26;;;;;;;2.53;1.47;;;;;;;;;;5090138;28;20020;-71
2022/05/28 10:26:54;;;;;;;2.27;1.27;;;;;;;;;;5090384;28;20035;-72
2022/05/28 10:29:21;;;;;;;2.37;1.60;;;;;;;;;;5090064;28;20028;-71
2022/05/28 10:31:49;;;;;;;4.13;1.83;;;;;;;;;;5094922;28;20024;-71
2022/05/28 10:34:35;;;;;;;2.17;1.20;;;;;;;;;;5095781;28;20408;-71
2022/05/28 10:37:06;;;;;;;3.83;1.23;;;;;;;;;;5094755;28;20020;-71
2022/05/28 10:39:33;;;;;;;2.93;1.57;;;;;;;;;;5092929;28;20027;-71
2022/05/28 10:42:01;;;;;;;3.67;1.47;;;;;;;;;;5094841;28;20020;-71
2022/05/28 10:44:27;;;;;;;2.80;1.50;;;;;;;;;;5089868;28;20054;-72
2022/05/28 10:46:55;;;;;;;2.97;1.80;;;;;;;;;;5089948;28;20023;-71
2022/05/28 10:49:38;;;;;;;4.47;1.73;;;;;;;;;;5089771;28;20090;-71
2022/05/28 10:52:23;;;;;;;9.03;4.00;;;;;;;;;;5090224;28;20024;-71
2022/05/28 10:54:59;;;;;;;9.88;5.00;;;;;;;;;;5095175;28;20049;-71
2022/05/28 10:57:43;;;;;;;10.00;4.77;;;;;;;;;;5095386;28;20047;-71
2022/05/28 11:00:15;;;;;;;5.63;3.27;;;;;;;;;;5094898;28;20024;-71
2022/05/28 11:02:54;;;;;;;7.13;3.20;;;;;;;;;;5094861;28;20095;-71
2022/05/28 11:05:37;;;;;;;6.03;3.40;;;;;;;;;;5092434;28;20027;-71
2022/05/28 11:08:06;;;;;;;4.93;2.30;;;;;;;;;;5089536;28;20039;-71
2022/05/28 11:10:39;;;;;;;3.93;2.27;;;;;;;;;;5088774;28;20474;-71
2022/05/28 11:13:06;;;;;;;4.33;1.87;;;;;;;;;;5088786;28;20039;-71
2022/05/28 11:15:51;;;;;;;5.00;2.40;;;;;;;;;;5092497;28;20025;-71
2022/05/28 11:18:47;;;;;;;5.65;2.58;;;;;;;;;;5094807;28;20020;-71
2022/05/28 11:21:13;;;;;;;;;;;;;;;;;;5077847;28;20051;-71
2022/05/28 11:23:40;;;;;;;4.10;2.00;;;;;;;;;;5094757;28;19908;-71
2022/05/28 11:26:07;;;;;;;3.60;2.00;;;;;;;;;;5094370;28;20130;-71
2022/05/28 11:28:47;;;;;;;3.87;1.97;;;;;;;;;;5089600;28;20032;-71
2022/05/28 11:31:19;;;;;;;4.27;1.87;;;;;;;;;;5089152;28;20032;-71
2022/05/28 11:33:46;;;;;;;3.97;1.93;;;;;;;;;;5089105;28;20521;-71
2022/05/28 11:36:19;;;;;;;4.03;1.80;;;;;;;;;;5088969;28;20040;-71
2022/05/28 11:38:48;;;;;;;3.00;1.67;;;;;;;;;;5093682;28;20031;-70
2022/05/28 11:41:22;;;;;;;3.70;2.10;;;;;;;;;;5094044;28;20093;-71
2022/05/28 11:44:07;;;;;;;3.77;1.90;;;;;;;;;;5094436;28;20032;-70
2022/05/28 11:46:41;;;;;;;3.25;1.70;;;;;;;;;;5094077;28;20038;-71
2022/05/28 11:52:04;;;;;;;3.63;1.80;;;;;;;;;;5088570;28;20267;-70
2022/05/28 11:54:41;;;;;;;3.87;2.00;;;;;;;;;;5088753;28;20043;-70
2022/05/28 11:57:14;;;;;;;2.17;1.50;;;;;;;;;;5088781;28;21371;-70
2022/05/28 11:59:43;;;;;;;2.50;1.70;;;;;;;;;;5090387;28;20161;-71
2022/05/28 12:02:15;;;;;;;5.23;2.13;;;;;;;;;;5093368;28;20035;-70
2022/05/28 12:04:43;;;;;;;4.40;1.90;;;;;;;;;;5093928;28;20115;-70
2022/05/28 12:07:36;;;;;;;3.63;1.43;;;;;;;;;;5093845;28;20498;-70
2022/05/28 12:10:05;;;;;;;4.63;1.63;;;;;;;;;;5090709;28;20036;-71
2022/05/28 12:13:00;;;;;;;4.00;1.83;;;;;;;;;;5090522;28;20021;-71
2022/05/28 12:15:29;;;;;;;4.22;1.70;;;;;;;;;;5085956;28;20043;-70
2022/05/28 12:18:17;;;;;;;3.00;1.77;;;;;;;;;;5088321;28;20467;-71
2022/05/28 12:20:58;;;;;;;2.97;1.50;;;;;;;;;;5071416;28;20047;-71
2022/05/28 12:23:29;;;;;;;3.53;1.80;;;;;;;;;;5093042;28;20017;-71
2022/05/28 12:25:55;;;;;;;3.17;1.77;;;;;;;;;;5093158;28;20103;-71
2022/05/28 12:28:27;;;;;;;4.60;2.10;;;;;;;;;;5093284;28;20088;-71
2022/05/28 12:30:57;;;;;;;4.00;2.30;;;;;;;;;;5093303;28;20020;-71
2022/05/28 12:33:25;;;;;;;3.37;1.60;;;;;;;;;;5093448;28;20122;-70
2022/05/28 12:36:05;;;;;;;2.90;1.80;;;;;;;;;;5087831;28;20111;-70
2022/05/28 12:38:37;;;;;;;2.27;1.50;;;;;;;;;;5087513;28;20016;-70
2022/05/28 12:41:04;;;;;;;3.73;1.80;;;;;;;;;;5087729;28;20020;-70
2022/05/28 12:43:34;;;;;;;3.57;2.13;;;;;;;;;;5087766;28;20059;-70
2022/05/28 12:46:21;;;;;;;5.80;1.73;;;;;;;;;;5093104;28;20514;-70
2022/05/28 12:48:51;;;;;;;6.70;2.10;;;;;;;;;;5093159;28;20032;-70
2022/05/28 12:51:32;;;;;;;4.40;1.90;;;;;;;;;;5092819;28;20479;-70
2022/05/28 12:54:00;;;;;;;4.40;2.37;;;;;;;;;;5092843;28;20103;-70
2022/05/28 12:56:40;;;;;;;3.03;1.80;;;;;;;;;;5090955;28;20020;-74
2022/05/28 12:59:12;;;;;;;6.13;2.40;;;;;;;;;;5087511;28;20564;-73
2022/05/28 13:01:40;;;;;;;4.90;2.40;;;;;;;;;;5087118;28;20032;-73
2022/05/28 13:04:08;;;;;;;6.83;2.63;;;;;;;;;;5087280;28;20024;-73
2022/05/28 13:06:39;;;;;;;5.33;2.10;;;;;;;;;;5089233;28;20035;-73
2022/05/28 13:09:07;;;;;;;4.87;2.37;;;;;;;;;;5092513;28;20036;-73
2022/05/28 13:11:50;;;;;;;4.57;2.57;;;;;;;;;;5092527;28;20107;-73
2022/05/28 13:14:35;;;;;;;6.87;2.50;;;;;;;;;;5092408;28;20019;-73
2022/05/28 13:17:01;;;;;;;5.50;2.50;;;;;;;;;;5092184;28;20543;-74
2022/05/28 13:19:32;;;;;;;4.77;2.10;;;;;;;;;;5089523;28;20035;-74
2022/05/28 13:22:03;;;;;;;4.70;2.43;;;;;;;;;;5087235;28;20134;-73
2022/05/28 13:24:43;;;;;;;5.30;2.43;;;;;;;;;;5087003;28;20024;-73
2022/05/28 13:27:28;;;;;;;3.50;2.10;;;;;;;;;;5086484;28;20487;-73
2022/05/28 13:30:04;;;;;;;5.87;2.80;;;;;;;;;;5091031;28;20024;-73
2022/05/28 13:32:30;;;;;;;13.57;5.27;;;;;;;;;;5092475;28;20035;-73
2022/05/28 13:35:09;;;;;;;12.53;6.20;;;;;;;;;;5091970;28;20020;-73
2022/05/28 13:37:36;;;;;;;9.30;4.77;;;;;;;;;;5091671;28;20467;-73
2022/05/28 13:40:04;;;;;;;6.73;4.00;;;;;;;;;;5092322;28;20026;-73
2022/05/28 13:42:34;;;;;;;13.80;5.33;;;;;;;;;;5087059;28;20032;-73
2022/05/28 13:45:01;;;;;;;8.03;3.67;;;;;;;;;;5086819;28;20110;-73
2022/05/28 13:47:34;;;;;;;7.13;3.17;;;;;;;;;;5086757;28;20110;-73
2022/05/28 13:50:01;;;;;;;10.67;3.90;;;;;;;;;;5086375;28;20050;-73
2022/05/28 13:52:31;;;;;;;8.17;2.80;;;;;;;;;;5091057;28;20028;-73
2022/05/28 13:55:03;;;;;;;4.03;2.13;;;;;;;;;;5092330;28;20016;-73
2022/05/28 13:57:40;;;;;;;6.00;2.03;;;;;;;;;;5092227;28;20027;-73
2022/05/28 14:00:18;;;;;;;3.63;1.60;;;;;;;;;;5092216;28;20432;-73
2022/05/28 14:02:54;;;;;;;2.97;1.90;;;;;;;;;;5091811;28;20401;-73
2022/05/28 14:05:40;;;;;;;6.27;2.47;;;;;;;;;;5086681;28;20035;-73
2022/05/28 14:08:15;;;;;;;7.40;2.67;;;;;;;;;;5086680;28;20398;-73
2022/05/28 14:10:42;;;;;;;5.53;2.17;;;;;;;;;;5086587;28;20482;-73
2022/05/28 14:13:19;;;;;;;8.47;2.47;;;;;;;;;;5087649;28;20024;-73
2022/05/28 14:15:50;;;;;;;6.67;2.40;;;;;;;;;;5091689;28;20500;-73
2022/05/28 14:18:28;;;;;;;3.50;1.97;;;;;;;;;;5091908;28;20474;-73
2022/05/28 14:21:06;;;;;;;4.47;2.00;;;;;;;;;;5091347;28;20027;-73
2022/05/28 14:23:33;;;;;;;3.70;2.17;;;;;;;;;;5092030;28;20028;-73
2022/05/28 14:26:01;;;;;;;4.30;1.77;;;;;;;;;;5088965;28;20039;-73
2022/05/28 14:28:30;;;;;;;5.77;1.80;;;;;;;;;;5086479;28;20035;-73
2022/05/28 14:30:57;;;;;;;3.97;1.73;;;;;;;;;;5086628;28;20024;-73
2022/05/28 14:33:29;;;;;;;5.70;1.97;;;;;;;;;;5086185;28;20024;-73
2022/05/28 14:36:04;;;;;;;5.67;1.70;;;;;;;;;;5088680;28;20503;-73
2022/05/28 14:38:31;;;;;;;3.90;1.83;;;;;;;;;;5091523;28;20055;-73
2022/05/28 14:40:59;;;;;;;5.67;2.20;;;;;;;;;;5091799;28;20115;-73
2022/05/28 14:43:28;;;;;;;3.43;1.77;;;;;;;;;;5091631;28;20100;-73
2022/05/28 14:46:13;;;;;;;4.40;1.87;;;;;;;;;;5091458;28;20028;-74
2022/05/28 14:48:39;;;;;;;4.22;1.98;;;;;;;;;;5092169;28;20052;-71
2022/05/28 14:51:06;;;;;;;4.37;1.90;;;;;;;;;;5089859;28;20450;-71
2022/05/28 14:53:38;;;;;;;6.13;1.67;;;;;;;;;;5089634;28;20047;-71
2022/05/28 14:56:24;;;;;;;4.57;2.80;;;;;;;;;;5089960;28;20121;-71
2022/05/28 14:58:52;;;;;;;5.80;2.40;;;;;;;;;;5093189;28;20024;-72
2022/05/28 15:01:28;;;;;;;4.67;1.70;;;;;;;;;;5094995;28;20032;-73
2022/05/28 15:03:56;;;;;;;5.10;2.23;;;;;;;;;;5094715;28;20438;-73